Terminal Aerodrome Forecast
Issued by NWS

Home | Current Version | Previous Version | Text Only | Print | Product List | Glossary On
Versions: 1 2 3 4 5 6 7 8 9 10 11 12 13 14 15 16 17 18 19 20 21 22 23 24 25 26 27 28 29 30 31
000
FTUS43 KDLH 011132
TAFHIB
TAF
KHIB 011132Z 0112/0212 34008KT P6SM BKN015 OVC040
      TEMPO 0112/0115 5SM -SN BR BKN011
     FM011500 34010KT P6SM BKN015
     FM020000 33007KT P6SM BKN025
     FM020500 33004KT P6SM OVC028=

USA.gov is the U.S. government's official web portal to all federal, state and local government web resources and services.